Accedi per prenotare

Situazione Metar e Taf aeroporto Pisa - Effemeridi Aeroporto Lucca

[Source: ADDS]
METAR
LIRP 230115Z 17003KT 8000 NSC 20/19 Q1018 NOSIG =
TAF
LIRP 222300Z 2300/2324 29005KT CAVOK PROB30 TEMPO 2300/2306 5000 MIFG FEW015 BECMG 2309/2311 26015KT BECMG 2318/2320 11005KT =
SR / SS: 03:41 / 19:03 UTC (Effemeridi LIQL 2017-06-23)